sensor_id;sensor_type;location;lat;lon;timestamp;temperature;humidity
30467;DHT22;17258;52.560;13.046;2023-04-24T00:02:05;15.90;48.90
30467;DHT22;17258;52.560;13.046;2023-04-24T00:12:07;15.80;49.10
30467;DHT22;17258;52.560;13.046;2023-04-24T00:22:07;15.80;49.30
30467;DHT22;17258;52.560;13.046;2023-04-24T00:32:08;15.90;49.60
30467;DHT22;17258;52.560;13.046;2023-04-24T00:42:08;15.90;49.70
30467;DHT22;17258;52.560;13.046;2023-04-24T00:52:09;16.00;50.00
30467;DHT22;17258;52.560;13.046;2023-04-24T01:02:11;16.10;50.10
30467;DHT22;17258;52.560;13.046;2023-04-24T01:12:12;16.30;50.30
30467;DHT22;17258;52.560;13.046;2023-04-24T01:22:14;16.40;50.40
30467;DHT22;17258;52.560;13.046;2023-04-24T01:32:15;16.60;50.40
30467;DHT22;17258;52.560;13.046;2023-04-24T01:42:16;16.70;50.40
30467;DHT22;17258;52.560;13.046;2023-04-24T01:52:17;16.70;50.50
30467;DHT22;17258;52.560;13.046;2023-04-24T02:02:18;16.70;50.60
30467;DHT22;17258;52.560;13.046;2023-04-24T02:12:21;16.70;50.50
30467;DHT22;17258;52.560;13.046;2023-04-24T02:22:22;16.70;50.50
30467;DHT22;17258;52.560;13.046;2023-04-24T02:32:22;16.70;50.70
30467;DHT22;17258;52.560;13.046;2023-04-24T02:42:23;16.70;50.80
30467;DHT22;17258;52.560;13.046;2023-04-24T02:52:24;16.70;50.90
30467;DHT22;17258;52.560;13.046;2023-04-24T03:02:24;16.70;51.00
30467;DHT22;17258;52.560;13.046;2023-04-24T03:12:25;16.70;51.10
30467;DHT22;17258;52.560;13.046;2023-04-24T03:22:26;16.70;51.80
30467;DHT22;17258;52.560;13.046;2023-04-24T03:32:26;16.70;51.20
30467;DHT22;17258;52.560;13.046;2023-04-24T03:42:27;16.80;51.40
30467;DHT22;17258;52.560;13.046;2023-04-24T03:52:28;16.80;51.50
30467;DHT22;17258;52.560;13.046;2023-04-24T04:02:28;16.80;51.60
30467;DHT22;17258;52.560;13.046;2023-04-24T04:12:29;16.90;51.70
30467;DHT22;17258;52.560;13.046;2023-04-24T04:22:30;16.90;51.70
30467;DHT22;17258;52.560;13.046;2023-04-24T04:32:31;17.00;51.80
30467;DHT22;17258;52.560;13.046;2023-04-24T04:42:33;17.00;51.80
30467;DHT22;17258;52.560;13.046;2023-04-24T04:52:34;17.10;51.90
30467;DHT22;17258;52.560;13.046;2023-04-24T05:02:35;17.10;52.10
30467;DHT22;17258;52.560;13.046;2023-04-24T05:12:35;17.20;52.20
30467;DHT22;17258;52.560;13.046;2023-04-24T05:22:36;17.30;52.30
30467;DHT22;17258;52.560;13.046;2023-04-24T05:32:37;17.40;52.40
30467;DHT22;17258;52.560;13.046;2023-04-24T05:42:37;17.50;52.40
30467;DHT22;17258;52.560;13.046;2023-04-24T05:52:38;17.70;52.50
30467;DHT22;17258;52.560;13.046;2023-04-24T06:02:39;17.80;52.50
30467;DHT22;17258;52.560;13.046;2023-04-24T06:12:40;17.90;53.00
30467;DHT22;17258;52.560;13.046;2023-04-24T06:22:40;18.10;53.00
30467;DHT22;17258;52.560;13.046;2023-04-24T06:32:41;18.30;53.20
30467;DHT22;17258;52.560;13.046;2023-04-24T06:42:42;18.60;53.00
30467;DHT22;17258;52.560;13.046;2023-04-24T06:52:42;18.70;52.70
30467;DHT22;17258;52.560;13.046;2023-04-24T07:02:44;18.80;52.50
30467;DHT22;17258;52.560;13.046;2023-04-24T07:12:45;18.90;52.60
30467;DHT22;17258;52.560;13.046;2023-04-24T07:22:46;19.20;52.90
30467;DHT22;17258;52.560;13.046;2023-04-24T07:32:48;19.50;52.60
30467;DHT22;17258;52.560;13.046;2023-04-24T07:42:49;19.70;52.60
30467;DHT22;17258;52.560;13.046;2023-04-24T07:52:50;20.00;52.50
30467;DHT22;17258;52.560;13.046;2023-04-24T08:02:50;20.30;52.20
30467;DHT22;17258;52.560;13.046;2023-04-24T08:12:51;20.70;52.00
30467;DHT22;17258;52.560;13.046;2023-04-24T08:22:52;21.00;51.70
30467;DHT22;17258;52.560;13.046;2023-04-24T08:32:53;21.30;51.50
30467;DHT22;17258;52.560;13.046;2023-04-24T08:42:54;21.50;51.30
30467;DHT22;17258;52.560;13.046;2023-04-24T08:53:01;21.90;50.90
30467;DHT22;17258;52.560;13.046;2023-04-24T09:03:02;22.10;50.40
30467;DHT22;17258;52.560;13.046;2023-04-24T09:13:03;22.20;50.30
30467;DHT22;17258;52.560;13.046;2023-04-24T09:23:04;22.30;49.50
30467;DHT22;17258;52.560;13.046;2023-04-24T09:33:14;22.30;49.30
30467;DHT22;17258;52.560;13.046;2023-04-24T09:43:15;22.30;49.00
30467;DHT22;17258;52.560;13.046;2023-04-24T09:53:24;22.40;49.50
30467;DHT22;17258;52.560;13.046;2023-04-24T10:03:26;22.50;49.60
30467;DHT22;17258;52.560;13.046;2023-04-24T10:13:30;22.60;49.00
30467;DHT22;17258;52.560;13.046;2023-04-24T10:23:32;22.60;48.50
30467;DHT22;17258;52.560;13.046;2023-04-24T10:33:33;22.50;49.30
30467;DHT22;17258;52.560;13.046;2023-04-24T10:43:34;22.50;49.00
30467;DHT22;17258;52.560;13.046;2023-04-24T10:53:35;22.60;49.20
30467;DHT22;17258;52.560;13.046;2023-04-24T11:03:35;22.90;48.80
30467;DHT22;17258;52.560;13.046;2023-04-24T11:23:55;23.00;49.80
30467;DHT22;17258;52.560;13.046;2023-04-24T11:33:56;22.90;49.60
30467;DHT22;17258;52.560;13.046;2023-04-24T11:43:57;22.90;49.60
30467;DHT22;17258;52.560;13.046;2023-04-24T11:53:58;22.80;49.90
30467;DHT22;17258;52.560;13.046;2023-04-24T12:04:00;22.90;50.00
30467;DHT22;17258;52.560;13.046;2023-04-24T12:14:11;22.90;49.30
30467;DHT22;17258;52.560;13.046;2023-04-24T12:24:12;22.80;46.70
30467;DHT22;17258;52.560;13.046;2023-04-24T12:34:22;22.30;47.00
30467;DHT22;17258;52.560;13.046;2023-04-24T12:44:34;21.80;47.30
30467;DHT22;17258;52.560;13.046;2023-04-24T12:54:35;21.50;47.90
30467;DHT22;17258;52.560;13.046;2023-04-24T13:04:36;21.50;48.40
30467;DHT22;17258;52.560;13.046;2023-04-24T13:14:37;21.50;49.00
30467;DHT22;17258;52.560;13.046;2023-04-24T13:24:38;21.80;49.40
30467;DHT22;17258;52.560;13.046;2023-04-24T13:34:42;22.20;48.70
30467;DHT22;17258;52.560;13.046;2023-04-24T13:44:43;22.50;48.70
30467;DHT22;17258;52.560;13.046;2023-04-24T13:54:44;23.00;47.70
30467;DHT22;17258;52.560;13.046;2023-04-24T14:04:44;23.30;45.70
30467;DHT22;17258;52.560;13.046;2023-04-24T14:14:46;23.50;44.30
30467;DHT22;17258;52.560;13.046;2023-04-24T14:24:48;23.60;43.60
30467;DHT22;17258;52.560;13.046;2023-04-24T14:34:48;23.70;42.00
30467;DHT22;17258;52.560;13.046;2023-04-24T14:44:49;23.50;41.60
30467;DHT22;17258;52.560;13.046;2023-04-24T14:54:50;23.10;42.30
30467;DHT22;17258;52.560;13.046;2023-04-24T15:04:51;22.90;41.00
30467;DHT22;17258;52.560;13.046;2023-04-24T15:14:52;22.80;41.30
30467;DHT22;17258;52.560;13.046;2023-04-24T15:24:52;22.50;42.10
30467;DHT22;17258;52.560;13.046;2023-04-24T15:34:53;22.20;42.60
30467;DHT22;17258;52.560;13.046;2023-04-24T15:44:54;22.10;42.60
30467;DHT22;17258;52.560;13.046;2023-04-24T15:54:55;21.90;42.00
30467;DHT22;17258;52.560;13.046;2023-04-24T16:04:55;21.90;41.90
30467;DHT22;17258;52.560;13.046;2023-04-24T16:14:56;21.70;41.90
30467;DHT22;17258;52.560;13.046;2023-04-24T16:24:57;21.50;41.40
30467;DHT22;17258;52.560;13.046;2023-04-24T16:34:58;21.00;41.40
30467;DHT22;17258;52.560;13.046;2023-04-24T16:44:58;20.60;42.20
30467;DHT22;17258;52.560;13.046;2023-04-24T16:54:59;20.10;43.00
30467;DHT22;17258;52.560;13.046;2023-04-24T17:05:00;19.80;43.50
30467;DHT22;17258;52.560;13.046;2023-04-24T17:15:00;19.50;43.80
30467;DHT22;17258;52.560;13.046;2023-04-24T17:25:01;19.10;44.20
30467;DHT22;17258;52.560;13.046;2023-04-24T17:35:02;18.80;44.50
30467;DHT22;17258;52.560;13.046;2023-04-24T17:45:03;18.40;45.10
30467;DHT22;17258;52.560;13.046;2023-04-24T17:55:04;18.10;45.40
30467;DHT22;17258;52.560;13.046;2023-04-24T18:05:05;17.80;45.50
30467;DHT22;17258;52.560;13.046;2023-04-24T18:15:06;17.50;45.70
30467;DHT22;17258;52.560;13.046;2023-04-24T18:25:08;17.20;45.70
30467;DHT22;17258;52.560;13.046;2023-04-24T18:35:09;16.90;45.80
30467;DHT22;17258;52.560;13.046;2023-04-24T18:45:10;16.60;45.90
30467;DHT22;17258;52.560;13.046;2023-04-24T18:55:11;16.40;46.10
30467;DHT22;17258;52.560;13.046;2023-04-24T19:05:12;16.20;46.40
30467;DHT22;17258;52.560;13.046;2023-04-24T19:15:13;16.00;46.70
30467;DHT22;17258;52.560;13.046;2023-04-24T19:25:14;15.80;47.20
30467;DHT22;17258;52.560;13.046;2023-04-24T19:35:15;15.60;47.10
30467;DHT22;17258;52.560;13.046;2023-04-24T19:45:15;15.50;47.30
30467;DHT22;17258;52.560;13.046;2023-04-24T19:55:16;15.40;47.20
30467;DHT22;17258;52.560;13.046;2023-04-24T20:05:17;15.30;47.60
30467;DHT22;17258;52.560;13.046;2023-04-24T20:15:18;15.10;47.50
30467;DHT22;17258;52.560;13.046;2023-04-24T20:25:18;14.90;47.90
30467;DHT22;17258;52.560;13.046;2023-04-24T20:35:19;14.80;48.10
30467;DHT22;17258;52.560;13.046;2023-04-24T20:45:20;14.80;48.00
30467;DHT22;17258;52.560;13.046;2023-04-24T20:55:22;14.80;48.20
30467;DHT22;17258;52.560;13.046;2023-04-24T21:05:22;14.80;48.40
30467;DHT22;17258;52.560;13.046;2023-04-24T21:15:23;14.80;48.60
30467;DHT22;17258;52.560;13.046;2023-04-24T21:25:24;14.80;48.80
30467;DHT22;17258;52.560;13.046;2023-04-24T21:35:25;14.80;49.10
30467;DHT22;17258;52.560;13.046;2023-04-24T21:45:26;14.80;49.30
30467;DHT22;17258;52.560;13.046;2023-04-24T21:55:27;14.80;49.40
30467;DHT22;17258;52.560;13.046;2023-04-24T22:05:27;14.80;49.40
30467;DHT22;17258;52.560;13.046;2023-04-24T22:15:30;14.80;49.50
30467;DHT22;17258;52.560;13.046;2023-04-24T22:25:30;14.80;49.60
30467;DHT22;17258;52.560;13.046;2023-04-24T22:35:31;14.70;49.70
30467;DHT22;17258;52.560;13.046;2023-04-24T22:45:32;14.70;49.70
30467;DHT22;17258;52.560;13.046;2023-04-24T22:55:32;14.70;49.90
30467;DHT22;17258;52.560;13.046;2023-04-24T23:05:34;14.70;50.10
30467;DHT22;17258;52.560;13.046;2023-04-24T23:15:35;14.70;50.20
30467;DHT22;17258;52.560;13.046;2023-04-24T23:25:36;14.60;50.00
30467;DHT22;17258;52.560;13.046;2023-04-24T23:35:36;14.60;50.00
30467;DHT22;17258;52.560;13.046;2023-04-24T23:45:37;14.40;50.00
30467;DHT22;17258;52.560;13.046;2023-04-24T23:55:38;14.40;50.10
